• Join FlightAware (Why Join?)
  • Login
  • US Flag 
05:47PM EDT


 

Airport Tracker/Info


-or-


 

Live Flight TrackerFlight Track Log ✈ FSR411 ✈ 18-Mar-2014 ✈ KCMI - KDET

Flight Track Log - Related Links

Times and Time Zones

All times are in EDT time to prevent confusion due to time zone crossing. See the FSR411 flight status page for this flight to view local times or setup timezone preferences in your user account.

Time Position Orientation Groundspeed Altitude Reporting Facility
EDT Latitude Longitude Course Direction KTS MPH feet Rate Location/Type
05:14PM 39.9811 -88.1786 65° Northeast 232 267 27,000  Level Chicago Center
05:15PM 39.9967 -88.0869 77° East 260 299 7,200 -8,460 Descending Chicago Center
05:16PM 40.0306 -87.9850 67° East 304 350 9,600 2,760 Climbing Chicago Center
05:17PM 40.0681 -87.8733 66° East 318 366 13,000 3,420 Climbing Chicago Center
05:18PM 40.1225 -87.7219 65° Northeast 377 434 16,700 3,240 Climbing Chicago Center
05:19PM 40.2648 -87.5263 75° East  Level FlightAware Approximate
05:19PM 40.1714 -87.5817 65° Northeast 414 476 19,700  Level Chicago Center
05:20PM 40.3063 -87.4037 65° Northeast  Level FlightAware Approximate
05:20PM 40.2261 -87.4267 65° Northeast 456 525 21,700  Level Chicago Center
05:21PM 40.2836 -87.2658 65° Northeast 481 554 24,900 2,040 Climbing Chicago Center
05:23PM 40.3386 -87.1050 66° East 485 558 26,000 480 Climbing Chicago Center
05:24PM 40.3983 -86.9319 66° East 515 593 26,000 300 Level Chicago Center
05:25PM 40.4558 -86.7622 66° East 509 586 26,700 480 Climbing Chicago Center
05:26PM 40.5264 -86.5556 66° East 514 592 27,000 120 Climbing Chicago Center
05:27PM 40.5856 -86.3819 66° East 518 596 27,000  Level Chicago Center
05:28PM 40.6444 -86.2061 66° East 522 601 27,000 -480 Level Chicago Center
05:29PM 40.7083 -86.0111 67° East 522 601 26,100 -1,200 Descending Chicago Center
05:30PM 40.7664 -85.8397 66° East 517 595 24,600 -1,020 Descending Chicago Center
05:31PM 40.8214 -85.6697 67° East 511 588 24,000 -780 Descending Chicago Center
05:32PM 40.8761 -85.5014 67° East 504 580 23,000 -1,440 Descending Chicago Center
05:33PM 40.9294 -85.3403 66° East 491 565 21,100 -1,500 Descending Chicago Center
05:34PM 40.9928 -85.1431 67° East 490 564 19,900 -1,020 Descending Chicago Center
05:35PM 41.0433 -84.9806 68° East 485 558 19,000 -960 Descending Chicago Center
05:36PM 41.0933 -84.8222 67° East 474 545 18,000 -1,020 Descending Chicago Center
05:37PM 41.1411 -84.6658 68° East 464 534 17,000 -540 Descending Chicago Center
05:38PM 41.1892 -84.5108 68° East 458 527 17,000  Level Chicago Center
05:39PM 41.2456 -84.3258 68° East 454 522 17,000 -480 Level Chicago Center
05:40PM 41.2917 -84.1714 68° East 451 519 16,100 -900 Descending Chicago Center
05:41PM 41.3367 -84.0264 68° East 430 495 15,200 -960 Descending Chicago Center
05:42PM 41.3786 -83.8825 69° East 422 486 14,200 -960 Descending Chicago Center
05:43PM 41.4228 -83.7433 67° East 416 479 13,200 -1,020 Descending Chicago Center
05:44PM 41.4503 -83.6433 70° East 402 463 12,500 -1,080 Descending Cleveland Center
05:45PM 41.4958 -83.5269 62° Northeast 398 458 11,600 -1,020 Descending Cleveland Center
05:45PM 41.5294 -83.4428 62° Northeast 394 453 11,000 -1,020 Descending Cleveland Center
05:46PM 41.5475 -83.3989 61° Northeast 398 458 10,600 -840 Descending Cleveland Center
05:46PM 41.5869 -83.2972 63° Northeast 390 449 10,100 -600 Descending Cleveland Center
05:47PM 41.5972 -83.2731 60° Northeast 389 448 10,000  Descending Cleveland Center
05:47PM 41.6342 -83.1753 63° Northeast 372 428 10,100 60 Climbing Cleveland Center
05:48PM 41.6436 -83.1525 61° Northeast 371 427 10,100 -120 Level Cleveland Center
05:48PM 41.6808 -83.0589 62° Northeast 350 403 10,000 -120 Descending Cleveland Center
05:49PM 41.6900 -83.0372 60° Northeast 361 415 10,000  Level Cleveland Center
05:49PM 41.7222 -82.9553 62° Northeast 347 399 10,000  Level Cleveland Center
05:50PM 41.7472 -82.9022 58° Northeast 351 404 10,000  Level Cleveland Center
05:50PM 41.7742 -82.8475 57° Northeast 344 396 10,000 -600 Level Cleveland Center
05:51PM 41.8056 -82.8164 36° Northeast 312 359 9,400 -1,440 Descending Cleveland Center
05:51PM 41.8422 -82.8061 12° North 293 337 8,700 -1,560 Descending Cleveland Center
05:52PM 41.8867 -82.8039 North 300 345 7,800 -1,980 Descending Cleveland Center
05:52PM 41.9303 -82.8036 360° North 290 334 6,700 -1,980 Descending Cleveland Center
05:53PM 41.9672 -82.7992 North 297 342 5,800 -1,920 Descending Cleveland Center
05:53PM 42.0167 -82.7983 North 290 334 4,600 -1,680 Descending Cleveland Center
05:54PM 42.0467 -82.7964 North 293 337 4,100 -600 Descending Cleveland Center
05:55PM 42.0944 -82.7944 North 283 326 4,000 -120 Descending Cleveland Center
05:55PM 42.1364 -82.8103 344° North 278 320 4,000  Level Cleveland Center
05:56PM 42.1706 -82.8383 329° Northwest 274 315 4,000 -240 Level Cleveland Center
05:56PM 42.2033 -82.8594 334° Northwest 276 318 3,800 -540 Descending Cleveland Center
05:56PM 42.2303 -82.8828 327° Northwest 271 312 3,500 -780 Descending Cleveland Center
05:57PM 42.2728 -82.9011 342° North 276 318 3,000 -540 Descending Cleveland Center
05:57PM 42.3033 -82.9125 345° North 277 319 3,000  Level Cleveland Center
05:58PM 42.3425 -82.9278 344° North 267 307 3,000 -360 Level Cleveland Center
05:59PM 42.3725 -82.9414 341° North 205 236 2,600 -780 Descending Cleveland Center
05:59PM 42.3953 -82.9497 345° North 215 247 2,200 -540 Descending Cleveland Center
06:00PM 42.4244 -82.9739 329° Northwest 175 201 2,000 -240 Descending Cleveland Center
06:00PM 42.4472 -82.9886 335° Northwest 191 220 2,000 -300 Level Cleveland Center
06:01PM 42.4594 -83.0125 305° West 142 163 1,700 -720 Descending Cleveland Center
06:01PM 42.4494 -83.0278 228° Southwest 165 190 1,300 -720 Descending Cleveland Center
06:02PM 42.4308 -83.0286 182° South 121 139 1,000 -420 Descending Cleveland Center
06:02PM 42.4208 -83.0247 164° South 143 165 900 -240 Descending Cleveland Center